createdAt,value
2022-11-10T00:06:49.580Z,26.70
2022-11-10T00:17:02.064Z,30.40
2022-11-10T00:27:08.380Z,31.60
2022-11-10T00:37:14.700Z,32.00
2022-11-10T00:47:20.988Z,29.90
2022-11-10T00:57:27.321Z,32.70
2022-11-10T01:07:33.776Z,31.80
2022-11-10T01:17:40.081Z,31.40
2022-11-10T01:27:46.714Z,28.70
2022-11-10T01:37:54.186Z,31.20
2022-11-10T01:48:04.125Z,28.20
2022-11-10T01:58:10.897Z,28.70
2022-11-10T02:08:17.942Z,31.50
2022-11-10T02:18:24.254Z,31.50
2022-11-10T02:28:35.213Z,32.00
2022-11-10T02:38:41.726Z,33.50
2022-11-10T02:48:48.007Z,33.40
2022-11-10T02:58:54.668Z,30.60
2022-11-10T03:09:01.181Z,31.00
2022-11-10T03:19:07.517Z,34.00
2022-11-10T03:29:13.877Z,35.30
2022-11-10T03:39:18.262Z,36.30
2022-11-10T03:49:24.797Z,36.60
2022-11-10T03:59:31.484Z,37.70
2022-11-10T04:09:37.870Z,35.60
2022-11-10T04:19:44.178Z,36.10
2022-11-10T04:29:50.470Z,35.10
2022-11-10T04:39:56.788Z,34.70
2022-11-10T04:50:03.081Z,31.80
2022-11-10T05:00:10.760Z,34.30
2022-11-10T05:10:17.268Z,33.30
2022-11-10T05:20:25.840Z,33.30
2022-11-10T05:30:32.200Z,33.20
2022-11-10T05:40:38.493Z,34.80
2022-11-10T05:50:45.944Z,33.10
2022-11-10T06:00:52.309Z,35.00
2022-11-10T06:10:58.703Z,35.70
2022-11-10T06:21:05.072Z,35.00
2022-11-10T06:31:11.365Z,35.00
2022-11-10T06:41:21.300Z,35.60
2022-11-10T06:51:31.774Z,35.20
2022-11-10T07:01:38.079Z,31.80
2022-11-10T07:11:44.484Z,39.20
2022-11-10T07:21:50.829Z,35.80
2022-11-10T07:31:57.417Z,37.50
2022-11-10T07:42:03.701Z,42.40
2022-11-10T07:52:10.456Z,41.20
2022-11-10T08:02:16.857Z,38.90
2022-11-10T08:12:23.137Z,35.50
2022-11-10T08:22:29.768Z,36.40
2022-11-10T08:32:36.192Z,36.20
2022-11-10T08:42:42.521Z,33.30
2022-11-10T08:52:48.797Z,36.40
2022-11-10T09:02:56.297Z,36.00
2022-11-10T09:13:04.054Z,36.80
2022-11-10T09:23:12.968Z,34.90
2022-11-10T09:33:19.555Z,35.50
2022-11-10T09:43:47.150Z,33.90
2022-11-10T09:53:59.289Z,36.00
2022-11-10T10:04:17.220Z,35.40
2022-11-10T10:14:40.696Z,36.80
2022-11-10T10:24:47.160Z,34.60
2022-11-10T10:34:53.498Z,34.20
2022-11-10T10:45:22.212Z,34.70
2022-11-10T10:55:29.475Z,29.50
2022-11-10T11:05:35.842Z,29.10
2022-11-10T11:15:42.169Z,29.90
2022-11-10T11:25:49.529Z,29.50
2022-11-10T11:36:02.896Z,28.50
2022-11-10T11:46:51.038Z,24.70
2022-11-10T11:57:19.031Z,21.50
2022-11-10T12:07:29.186Z,21.80
2022-11-10T12:17:55.925Z,18.50
2022-11-10T12:28:26.433Z,15.80
2022-11-10T12:39:00.766Z,15.40
2022-11-10T12:49:29.353Z,13.60
2022-11-10T12:59:37.930Z,14.00
2022-11-10T13:09:45.100Z,13.60
2022-11-10T13:19:52.668Z,11.80
2022-11-10T13:30:00.130Z,26.70
2022-11-10T13:40:18.713Z,7.50
2022-11-10T13:50:40.723Z,7.40
2022-11-10T14:00:51.469Z,7.40
2022-11-10T14:11:01.838Z,20.00
2022-11-10T14:21:11.323Z,20.00
2022-11-10T14:31:21.579Z,13.90
2022-11-10T14:41:27.571Z,8.40
2022-11-10T14:51:35.812Z,8.50
2022-11-10T15:01:45.784Z,27.00
2022-11-10T15:11:56.139Z,31.90
2022-11-10T15:22:14.477Z,31.20
2022-11-10T15:32:23.330Z,34.90
2022-11-10T15:42:29.649Z,35.10
2022-11-10T15:52:36.128Z,43.10
2022-11-10T16:02:43.888Z,42.40
2022-11-10T16:12:50.186Z,40.90
2022-11-10T16:22:56.485Z,39.30
2022-11-10T16:33:02.879Z,35.50
2022-11-10T16:43:19.146Z,35.60
2022-11-10T16:53:28.324Z,34.70
2022-11-10T17:03:37.533Z,41.50
2022-11-10T17:13:43.867Z,51.40
2022-11-10T17:23:50.150Z,58.60
2022-11-10T17:33:56.521Z,63.90
2022-11-10T17:44:02.905Z,52.60
2022-11-10T17:54:16.270Z,61.50
2022-11-10T18:04:22.572Z,55.50
2022-11-10T18:14:28.983Z,43.30
2022-11-10T18:24:35.299Z,40.40
2022-11-10T18:34:41.661Z,36.70
2022-11-10T18:44:47.976Z,35.80
2022-11-10T18:54:54.296Z,33.80
2022-11-10T19:05:00.600Z,33.40
2022-11-10T19:15:07.371Z,28.30
2022-11-10T19:25:13.631Z,27.60
2022-11-10T19:35:19.904Z,26.90
2022-11-10T19:45:26.380Z,27.40
2022-11-10T19:55:33.768Z,25.50
2022-11-10T20:05:41.103Z,24.10
2022-11-10T20:15:47.447Z,21.80
2022-11-10T20:26:06.573Z,25.40
2022-11-10T20:36:20.170Z,32.20
2022-11-10T20:46:52.933Z,34.00
2022-11-10T20:56:53.799Z,35.10
2022-11-10T21:07:00.207Z,41.60
2022-11-10T21:17:06.795Z,51.40
2022-11-10T21:27:13.880Z,49.90
2022-11-10T21:37:20.197Z,50.90
2022-11-10T21:47:26.480Z,45.40
2022-11-10T21:57:32.801Z,42.90
2022-11-10T22:07:40.566Z,37.90
2022-11-10T22:18:05.528Z,33.80
2022-11-10T22:28:11.976Z,29.90
2022-11-10T22:38:18.392Z,27.30
2022-11-10T22:48:27.482Z,26.90
2022-11-10T22:58:33.914Z,25.50
2022-11-10T23:08:40.617Z,25.70
2022-11-10T23:18:47.892Z,24.20
2022-11-10T23:28:54.620Z,38.80
2022-11-10T23:39:01.112Z,36.00
2022-11-10T23:49:07.580Z,37.60
2022-11-10T23:59:14.001Z,35.20
